sensor_id;sensor_type;location;lat;lon;timestamp;pressure;altitude;pressure_sealevel;temperature;humidity
36378;BME280;22402;42.746;23.606;2023-08-06T00:00:22;92420.84;;;21.11;92.24
36378;BME280;22402;42.746;23.606;2023-08-06T00:02:48;92407.53;;;21.06;92.51
36378;BME280;22402;42.746;23.606;2023-08-06T00:05:13;92428.03;;;20.99;92.42
36378;BME280;22402;42.746;23.606;2023-08-06T00:07:46;92437.16;;;20.91;93.63
36378;BME280;22402;42.746;23.606;2023-08-06T00:10:11;92430.69;;;20.87;95.30
36378;BME280;22402;42.746;23.606;2023-08-06T00:12:37;92438.53;;;20.82;96.39
36378;BME280;22402;42.746;23.606;2023-08-06T00:15:02;92444.28;;;20.79;97.36
36378;BME280;22402;42.746;23.606;2023-08-06T00:17:28;92435.41;;;20.74;98.16
36378;BME280;22402;42.746;23.606;2023-08-06T00:19:54;92436.34;;;20.67;98.33
36378;BME280;22402;42.746;23.606;2023-08-06T00:22:19;92431.50;;;20.64;98.91
36378;BME280;22402;42.746;23.606;2023-08-06T00:24:44;92416.50;;;20.58;98.96
36378;BME280;22402;42.746;23.606;2023-08-06T00:27:10;92416.41;;;20.53;98.18
36378;BME280;22402;42.746;23.606;2023-08-06T00:29:35;92426.97;;;20.41;98.70
36378;BME280;22402;42.746;23.606;2023-08-06T00:32:01;92370.44;;;20.36;100.00
36378;BME280;22402;42.746;23.606;2023-08-06T00:34:26;92324.66;;;20.23;100.00
36378;BME280;22402;42.746;23.606;2023-08-06T00:36:52;92368.81;;;20.11;100.00
36378;BME280;22402;42.746;23.606;2023-08-06T00:39:19;92379.03;;;20.08;100.00
36378;BME280;22402;42.746;23.606;2023-08-06T00:41:44;92381.91;;;20.06;100.00
36378;BME280;22402;42.746;23.606;2023-08-06T00:44:10;92376.72;;;19.99;100.00
36378;BME280;22402;42.746;23.606;2023-08-06T00:46:35;92375.94;;;19.99;100.00
36378;BME280;22402;42.746;23.606;2023-08-06T00:49:01;92365.81;;;19.96;100.00
36378;BME280;22402;42.746;23.606;2023-08-06T00:51:26;92374.63;;;19.90;100.00
36378;BME280;22402;42.746;23.606;2023-08-06T00:53:52;92364.03;;;19.90;100.00
36378;BME280;22402;42.746;23.606;2023-08-06T00:56:18;92358.06;;;19.83;100.00
36378;BME280;22402;42.746;23.606;2023-08-06T00:58:45;92347.13;;;19.79;100.00
36378;BME280;22402;42.746;23.606;2023-08-06T01:01:14;92341.84;;;19.79;100.00
36378;BME280;22402;42.746;23.606;2023-08-06T01:03:39;92345.63;;;19.83;100.00
36378;BME280;22402;42.746;23.606;2023-08-06T01:06:05;92337.16;;;19.81;100.00
36378;BME280;22402;42.746;23.606;2023-08-06T01:08:44;92341.16;;;19.84;100.00
36378;BME280;22402;42.746;23.606;2023-08-06T01:14:15;92330.50;;;19.90;100.00
36378;BME280;22402;42.746;23.606;2023-08-06T01:16:39;92325.09;;;19.97;100.00
36378;BME280;22402;42.746;23.606;2023-08-06T01:19:16;92331.31;;;20.02;100.00
36378;BME280;22402;42.746;23.606;2023-08-06T01:21:41;92329.00;;;20.06;100.00
36378;BME280;22402;42.746;23.606;2023-08-06T01:24:06;92321.19;;;20.11;100.00
36378;BME280;22402;42.746;23.606;2023-08-06T01:26:41;92305.41;;;20.16;100.00
36378;BME280;22402;42.746;23.606;2023-08-06T01:29:15;92306.00;;;20.18;100.00
36378;BME280;22402;42.746;23.606;2023-08-06T01:31:44;92301.28;;;20.20;100.00
36378;BME280;22402;42.746;23.606;2023-08-06T01:34:22;92298.75;;;20.25;100.00
36378;BME280;22402;42.746;23.606;2023-08-06T01:36:49;92288.75;;;20.27;100.00
36378;BME280;22402;42.746;23.606;2023-08-06T01:39:15;92294.63;;;20.30;100.00
36378;BME280;22402;42.746;23.606;2023-08-06T01:41:40;92285.06;;;20.29;100.00
36378;BME280;22402;42.746;23.606;2023-08-06T01:44:06;92294.03;;;20.27;100.00
36378;BME280;22402;42.746;23.606;2023-08-06T01:46:31;92309.91;;;20.27;100.00
36378;BME280;22402;42.746;23.606;2023-08-06T01:48:57;92318.44;;;20.30;100.00
36378;BME280;22402;42.746;23.606;2023-08-06T01:51:22;92319.22;;;20.30;100.00
36378;BME280;22402;42.746;23.606;2023-08-06T01:53:48;92319.22;;;20.30;100.00
36378;BME280;22402;42.746;23.606;2023-08-06T01:56:13;92318.44;;;20.30;100.00
36378;BME280;22402;42.746;23.606;2023-08-06T01:58:39;92303.59;;;20.29;100.00
36378;BME280;22402;42.746;23.606;2023-08-06T02:01:04;92298.53;;;20.27;100.00
36378;BME280;22402;42.746;23.606;2023-08-06T02:03:30;92309.91;;;20.27;100.00
36378;BME280;22402;42.746;23.606;2023-08-06T02:05:55;92313.00;;;20.24;100.00
36378;BME280;22402;42.746;23.606;2023-08-06T02:08:21;92302.69;;;20.23;100.00
36378;BME280;22402;42.746;23.606;2023-08-06T02:10:46;92284.16;;;20.23;100.00
36378;BME280;22402;42.746;23.606;2023-08-06T02:13:12;92273.56;;;20.23;100.00
36378;BME280;22402;42.746;23.606;2023-08-06T02:15:44;92266.91;;;20.20;100.00
36378;BME280;22402;42.746;23.606;2023-08-06T02:18:10;92274.25;;;20.18;100.00
36378;BME280;22402;42.746;23.606;2023-08-06T02:20:35;92281.59;;;20.16;100.00
36378;BME280;22402;42.746;23.606;2023-08-06T02:23:01;92278.41;;;20.14;100.00
36378;BME280;22402;42.746;23.606;2023-08-06T02:25:26;92282.66;;;20.15;100.00
36378;BME280;22402;42.746;23.606;2023-08-06T02:27:52;92296.91;;;20.14;100.00
36378;BME280;22402;42.746;23.606;2023-08-06T02:30:17;92283.22;;;20.17;100.00
36378;BME280;22402;42.746;23.606;2023-08-06T02:32:43;92280.00;;;20.15;100.00
36378;BME280;22402;42.746;23.606;2023-08-06T02:35:09;92298.78;;;20.14;100.00
36378;BME280;22402;42.746;23.606;2023-08-06T02:37:34;92315.44;;;20.14;100.00
36378;BME280;22402;42.746;23.606;2023-08-06T02:40:00;92324.63;;;20.12;100.00
36378;BME280;22402;42.746;23.606;2023-08-06T02:42:25;92335.44;;;20.10;100.00
36378;BME280;22402;42.746;23.606;2023-08-06T02:44:52;92332.69;;;20.05;100.00
36378;BME280;22402;42.746;23.606;2023-08-06T02:47:20;92337.41;;;20.03;100.00
36378;BME280;22402;42.746;23.606;2023-08-06T02:49:47;92337.06;;;19.99;100.00
36378;BME280;22402;42.746;23.606;2023-08-06T02:52:12;92347.84;;;19.98;100.00
36378;BME280;22402;42.746;23.606;2023-08-06T02:54:38;92344.66;;;19.96;100.00
36378;BME280;22402;42.746;23.606;2023-08-06T02:57:04;92356.03;;;19.96;100.00
36378;BME280;22402;42.746;23.606;2023-08-06T02:59:30;92356.47;;;19.93;100.00
36378;BME280;22402;42.746;23.606;2023-08-06T03:01:56;92350.38;;;19.93;100.00
36378;BME280;22402;42.746;23.606;2023-08-06T03:04:21;92334.94;;;19.90;100.00
36378;BME280;22402;42.746;23.606;2023-08-06T03:06:47;92327.59;;;19.92;100.00
36378;BME280;22402;42.746;23.606;2023-08-06T03:09:14;92321.72;;;19.90;100.00
36378;BME280;22402;42.746;23.606;2023-08-06T03:11:39;92316.69;;;19.88;100.00
36378;BME280;22402;42.746;23.606;2023-08-06T03:14:05;92317.13;;;19.85;100.00
36378;BME280;22402;42.746;23.606;2023-08-06T03:16:30;92317.47;;;19.89;100.00
36378;BME280;22402;42.746;23.606;2023-08-06T03:18:55;92312.66;;;19.86;100.00
36378;BME280;22402;42.746;23.606;2023-08-06T03:21:21;92294.13;;;19.86;100.00
36378;BME280;22402;42.746;23.606;2023-08-06T03:23:47;92292.75;;;19.83;100.00
36378;BME280;22402;42.746;23.606;2023-08-06T03:26:13;92282.41;;;19.82;100.00
36378;BME280;22402;42.746;23.606;2023-08-06T03:28:38;92290.22;;;19.76;100.00
36378;BME280;22402;42.746;23.606;2023-08-06T03:31:04;92293.63;;;19.65;100.00
36378;BME280;22402;42.746;23.606;2023-08-06T03:33:29;92293.63;;;19.65;100.00
36378;BME280;22402;42.746;23.606;2023-08-06T03:35:55;92264.63;;;19.58;100.00
36378;BME280;22402;42.746;23.606;2023-08-06T03:38:20;92214.84;;;19.44;100.00
36378;BME280;22402;42.746;23.606;2023-08-06T03:40:46;92179.69;;;19.31;100.00
36378;BME280;22402;42.746;23.606;2023-08-06T03:43:11;92186.66;;;19.26;100.00
36378;BME280;22402;42.746;23.606;2023-08-06T03:45:40;92216.28;;;19.16;100.00
36378;BME280;22402;42.746;23.606;2023-08-06T03:48:06;92252.00;;;19.07;100.00
36378;BME280;22402;42.746;23.606;2023-08-06T03:50:32;92299.38;;;19.02;100.00
36378;BME280;22402;42.746;23.606;2023-08-06T03:52:57;92388.59;;;19.00;100.00
36378;BME280;22402;42.746;23.606;2023-08-06T03:55:23;92389.03;;;18.97;100.00
36378;BME280;22402;42.746;23.606;2023-08-06T03:57:48;92325.81;;;19.02;100.00
36378;BME280;22402;42.746;23.606;2023-08-06T04:00:14;92269.88;;;19.05;100.00
36378;BME280;22402;42.746;23.606;2023-08-06T04:02:40;92294.81;;;19.09;100.00
36378;BME280;22402;42.746;23.606;2023-08-06T04:05:05;92343.56;;;19.13;100.00
36378;BME280;22402;42.746;23.606;2023-08-06T04:07:31;92355.06;;;19.19;100.00
36378;BME280;22402;42.746;23.606;2023-08-06T04:09:58;92347.50;;;19.22;100.00
36378;BME280;22402;42.746;23.606;2023-08-06T04:12:24;92347.59;;;19.27;100.00
36378;BME280;22402;42.746;23.606;2023-08-06T04:14:50;92344.75;;;19.29;100.00
36378;BME280;22402;42.746;23.606;2023-08-06T04:17:17;92351.66;;;19.30;100.00
36378;BME280;22402;42.746;23.606;2023-08-06T04:19:52;92358.13;;;19.34;100.00
36378;BME280;22402;42.746;23.606;2023-08-06T04:22:18;92362.59;;;19.33;100.00
36378;BME280;22402;42.746;23.606;2023-08-06T04:24:43;92364.66;;;19.31;100.00
36378;BME280;22402;42.746;23.606;2023-08-06T04:27:10;92333.97;;;19.30;100.00
36378;BME280;22402;42.746;23.606;2023-08-06T04:29:35;92327.31;;;19.28;100.00
36378;BME280;22402;42.746;23.606;2023-08-06T04:32:01;92318.78;;;19.26;100.00
36378;BME280;22402;42.746;23.606;2023-08-06T04:34:26;92289.72;;;19.26;100.00
36378;BME280;22402;42.746;23.606;2023-08-06T04:36:52;92275.13;;;19.23;100.00
36378;BME280;22402;42.746;23.606;2023-08-06T04:39:17;92316.78;;;19.21;100.00
36378;BME280;22402;42.746;23.606;2023-08-06T04:41:43;92316.34;;;19.24;100.00
36378;BME280;22402;42.746;23.606;2023-08-06T04:44:08;92283.84;;;19.24;100.00
36378;BME280;22402;42.746;23.606;2023-08-06T04:46:34;92240.91;;;19.28;100.00
36378;BME280;22402;42.746;23.606;2023-08-06T04:48:59;92230.53;;;19.27;100.00
36378;BME280;22402;42.746;23.606;2023-08-06T04:51:25;92229.28;;;19.29;100.00
36378;BME280;22402;42.746;23.606;2023-08-06T04:53:50;92253.22;;;19.34;100.00
36378;BME280;22402;42.746;23.606;2023-08-06T04:56:16;92291.59;;;19.37;100.00
36378;BME280;22402;42.746;23.606;2023-08-06T04:58:41;92302.97;;;19.38;100.00
36378;BME280;22402;42.746;23.606;2023-08-06T05:01:06;92314.13;;;19.40;100.00
36378;BME280;22402;42.746;23.606;2023-08-06T05:03:32;92307.56;;;19.42;100.00
36378;BME280;22402;42.746;23.606;2023-08-06T05:05:57;92293.09;;;19.45;100.00
36378;BME280;22402;42.746;23.606;2023-08-06T05:08:23;92302.19;;;19.49;100.00
36378;BME280;22402;42.746;23.606;2023-08-06T05:10:48;92305.19;;;19.52;100.00
36378;BME280;22402;42.746;23.606;2023-08-06T05:13:13;92301.31;;;19.55;100.00
36378;BME280;22402;42.746;23.606;2023-08-06T05:15:39;92282.91;;;19.60;100.00
36378;BME280;22402;42.746;23.606;2023-08-06T05:18:08;92287.34;;;19.66;100.00
36378;BME280;22402;42.746;23.606;2023-08-06T05:20:36;92276.66;;;19.73;100.00
36378;BME280;22402;42.746;23.606;2023-08-06T05:23:01;92275.72;;;19.79;100.00
36378;BME280;22402;42.746;23.606;2023-08-06T05:25:27;92282.41;;;19.82;100.00
36378;BME280;22402;42.746;23.606;2023-08-06T05:27:52;92271.84;;;19.82;100.00
36378;BME280;22402;42.746;23.606;2023-08-06T05:30:18;92268.38;;;19.81;100.00
36378;BME280;22402;42.746;23.606;2023-08-06T05:32:44;92265.97;;;19.79;100.00
36378;BME280;22402;42.746;23.606;2023-08-06T05:35:09;92272.28;;;19.78;100.00
36378;BME280;22402;42.746;23.606;2023-08-06T05:37:34;92266.41;;;19.76;100.00
36378;BME280;22402;42.746;23.606;2023-08-06T05:40:00;92264.34;;;19.78;100.00
36378;BME280;22402;42.746;23.606;2023-08-06T05:42:27;92259.06;;;19.78;100.00
36378;BME280;22402;42.746;23.606;2023-08-06T05:44:52;92265.50;;;19.83;100.00
36378;BME280;22402;42.746;23.606;2023-08-06T05:47:17;92256.75;;;19.82;100.00
36378;BME280;22402;42.746;23.606;2023-08-06T05:49:45;92265.28;;;19.84;100.00
36378;BME280;22402;42.746;23.606;2023-08-06T05:52:10;92261.25;;;19.82;100.00
36378;BME280;22402;42.746;23.606;2023-08-06T05:54:35;92261.47;;;19.80;100.00
36378;BME280;22402;42.746;23.606;2023-08-06T05:57:01;92277.34;;;19.80;100.00
36378;BME280;22402;42.746;23.606;2023-08-06T05:59:26;92279.63;;;19.76;100.00
36378;BME280;22402;42.746;23.606;2023-08-06T06:01:52;92285.38;;;19.73;100.00
36378;BME280;22402;42.746;23.606;2023-08-06T06:04:17;92289.06;;;19.72;100.00
36378;BME280;22402;42.746;23.606;2023-08-06T06:06:43;92308.13;;;19.74;100.00
36378;BME280;22402;42.746;23.606;2023-08-06T06:09:08;92318.84;;;19.79;100.00
36378;BME280;22402;42.746;23.606;2023-08-06T06:11:33;92324.28;;;19.85;100.00
36378;BME280;22402;42.746;23.606;2023-08-06T06:13:59;92330.50;;;19.90;100.00
36378;BME280;22402;42.746;23.606;2023-08-06T06:16:24;92336.00;;;20.00;100.00
36378;BME280;22402;42.746;23.606;2023-08-06T06:18:50;92332.56;;;20.12;100.00
36378;BME280;22402;42.746;23.606;2023-08-06T06:21:15;92333.72;;;20.27;100.00
36378;BME280;22402;42.746;23.606;2023-08-06T06:23:40;92325.09;;;20.44;100.00
36378;BME280;22402;42.746;23.606;2023-08-06T06:26:06;92320.84;;;20.55;100.00
36378;BME280;22402;42.746;23.606;2023-08-06T06:28:31;92319.91;;;20.73;100.00
36378;BME280;22402;42.746;23.606;2023-08-06T06:31:00;92322.03;;;20.99;100.00
36378;BME280;22402;42.746;23.606;2023-08-06T06:33:26;92331.28;;;21.37;100.00
36378;BME280;22402;42.746;23.606;2023-08-06T06:35:52;92331.44;;;21.76;100.00
36378;BME280;22402;42.746;23.606;2023-08-06T06:38:17;92333.41;;;22.14;100.00
36378;BME280;22402;42.746;23.606;2023-08-06T06:40:43;92333.09;;;22.44;100.00
36378;BME280;22402;42.746;23.606;2023-08-06T06:43:08;92333.50;;;22.75;100.00
36378;BME280;22402;42.746;23.606;2023-08-06T06:45:34;92336.34;;;23.07;100.00
36378;BME280;22402;42.746;23.606;2023-08-06T06:47:59;92347.28;;;23.55;100.00
36378;BME280;22402;42.746;23.606;2023-08-06T06:50:25;92358.56;;;23.89;100.00
36378;BME280;22402;42.746;23.606;2023-08-06T06:52:51;92348.22;;;23.93;100.00
36378;BME280;22402;42.746;23.606;2023-08-06T06:55:17;92349.78;;;23.88;100.00
36378;BME280;22402;42.746;23.606;2023-08-06T06:57:43;92351.34;;;23.84;100.00
36378;BME280;22402;42.746;23.606;2023-08-06T07:00:08;92356.66;;;23.84;100.00
36378;BME280;22402;42.746;23.606;2023-08-06T07:02:34;92367.16;;;23.96;100.00
36378;BME280;22402;42.746;23.606;2023-08-06T07:04:59;92369.91;;;24.06;100.00
36378;BME280;22402;42.746;23.606;2023-08-06T07:07:25;92377.75;;;24.23;99.71
36378;BME280;22402;42.746;23.606;2023-08-06T07:09:50;92380.94;;;24.20;98.35
36378;BME280;22402;42.746;23.606;2023-08-06T07:12:15;92390.88;;;23.98;97.86
36378;BME280;22402;42.746;23.606;2023-08-06T07:14:44;92397.50;;;23.73;98.76
36378;BME280;22402;42.746;23.606;2023-08-06T07:17:09;92390.19;;;23.85;100.00
36378;BME280;22402;42.746;23.606;2023-08-06T07:19:35;92396.19;;;24.30;98.25
36378;BME280;22402;42.746;23.606;2023-08-06T07:22:00;92388.88;;;24.79;95.21
36378;BME280;22402;42.746;23.606;2023-08-06T07:24:26;92392.94;;;25.30;92.40
36378;BME280;22402;42.746;23.606;2023-08-06T07:26:51;92387.00;;;25.80;89.43
36378;BME280;22402;42.746;23.606;2023-08-06T07:29:17;92387.91;;;26.22;86.04
36378;BME280;22402;42.746;23.606;2023-08-06T07:31:47;92389.81;;;26.67;83.85
36378;BME280;22402;42.746;23.606;2023-08-06T07:34:12;92387.88;;;27.09;81.92
36378;BME280;22402;42.746;23.606;2023-08-06T07:36:38;92379.22;;;27.58;79.80
36378;BME280;22402;42.746;23.606;2023-08-06T07:39:03;92372.16;;;27.82;78.37
36378;BME280;22402;42.746;23.606;2023-08-06T07:41:31;92358.38;;;28.04;76.99
36378;BME280;22402;42.746;23.606;2023-08-06T07:43:57;92357.56;;;28.04;75.32
36378;BME280;22402;42.746;23.606;2023-08-06T07:46:22;92360.28;;;27.99;74.31
36378;BME280;22402;42.746;23.606;2023-08-06T07:48:47;92349.88;;;27.92;73.77
36378;BME280;22402;42.746;23.606;2023-08-06T07:51:13;92357.59;;;27.99;73.56
36378;BME280;22402;42.746;23.606;2023-08-06T07:53:39;92349.31;;;28.34;73.06
36378;BME280;22402;42.746;23.606;2023-08-06T07:56:04;92346.50;;;28.84;71.87
36378;BME280;22402;42.746;23.606;2023-08-06T07:58:30;92351.16;;;29.32;69.42
36378;BME280;22402;42.746;23.606;2023-08-06T08:00:57;92348.28;;;29.71;68.81
36378;BME280;22402;42.746;23.606;2023-08-06T08:03:22;92352.16;;;30.03;67.95
36378;BME280;22402;42.746;23.606;2023-08-06T08:05:47;92363.06;;;30.30;65.33
36378;BME280;22402;42.746;23.606;2023-08-06T08:08:13;92360.19;;;30.27;64.73
36378;BME280;22402;42.746;23.606;2023-08-06T08:10:38;92367.59;;;30.35;65.39
36378;BME280;22402;42.746;23.606;2023-08-06T08:13:04;92368.69;;;30.66;64.37
36378;BME280;22402;42.746;23.606;2023-08-06T08:15:31;92362.66;;;31.07;63.08
36378;BME280;22402;42.746;23.606;2023-08-06T08:17:58;92373.47;;;31.35;61.54
36378;BME280;22402;42.746;23.606;2023-08-06T08:20:24;92375.53;;;31.24;59.99
36378;BME280;22402;42.746;23.606;2023-08-06T08:22:51;92377.94;;;31.26;60.00
36378;BME280;22402;42.746;23.606;2023-08-06T08:25:17;92380.38;;;31.55;58.31
36378;BME280;22402;42.746;23.606;2023-08-06T08:27:42;92372.59;;;31.81;57.46
36378;BME280;22402;42.746;23.606;2023-08-06T08:30:08;92380.75;;;32.17;56.42
36378;BME280;22402;42.746;23.606;2023-08-06T08:32:33;92388.22;;;32.57;55.07
36378;BME280;22402;42.746;23.606;2023-08-06T08:34:59;92390.56;;;32.95;54.17
36378;BME280;22402;42.746;23.606;2023-08-06T08:37:24;92382.84;;;33.24;51.85
36378;BME280;22402;42.746;23.606;2023-08-06T08:39:50;92389.97;;;33.51;52.05
36378;BME280;22402;42.746;23.606;2023-08-06T08:42:15;92378.63;;;33.72;50.60
36378;BME280;22402;42.746;23.606;2023-08-06T08:44:42;92377.25;;;33.92;49.16
36378;BME280;22402;42.746;23.606;2023-08-06T08:47:12;92373.63;;;34.05;49.00
36378;BME280;22402;42.746;23.606;2023-08-06T08:49:38;92371.44;;;34.24;48.60
36378;BME280;22402;42.746;23.606;2023-08-06T08:52:04;92376.25;;;34.54;47.90
36378;BME280;22402;42.746;23.606;2023-08-06T08:54:37;92366.84;;;34.86;47.11
36378;BME280;22402;42.746;23.606;2023-08-06T08:57:04;92354.72;;;35.18;46.99
36378;BME280;22402;42.746;23.606;2023-08-06T08:59:33;92349.34;;;35.48;44.72
36378;BME280;22402;42.746;23.606;2023-08-06T09:02:00;92356.47;;;35.70;43.99
36378;BME280;22402;42.746;23.606;2023-08-06T09:04:28;92340.25;;;35.91;43.26
36378;BME280;22402;42.746;23.606;2023-08-06T09:06:57;92339.38;;;36.08;42.13
36378;BME280;22402;42.746;23.606;2023-08-06T09:09:31;92339.53;;;36.32;41.35
36378;BME280;22402;42.746;23.606;2023-08-06T09:12:00;92338.22;;;36.59;41.03
36378;BME280;22402;42.746;23.606;2023-08-06T09:14:27;92338.78;;;36.86;40.72
36378;BME280;22402;42.746;23.606;2023-08-06T09:16:53;92331.84;;;37.09;39.63
36378;BME280;22402;42.746;23.606;2023-08-06T09:19:18;92318.53;;;37.29;38.99
36378;BME280;22402;42.746;23.606;2023-08-06T09:21:45;92322.78;;;37.51;38.19
36378;BME280;22402;42.746;23.606;2023-08-06T09:24:15;92316.34;;;37.68;37.83
36378;BME280;22402;42.746;23.606;2023-08-06T09:26:42;92313.84;;;37.87;38.16
36378;BME280;22402;42.746;23.606;2023-08-06T09:29:09;92320.75;;;38.09;37.75
36378;BME280;22402;42.746;23.606;2023-08-06T09:31:42;92320.28;;;38.32;36.89
36378;BME280;22402;42.746;23.606;2023-08-06T09:34:18;92330.56;;;38.50;37.11
36378;BME280;22402;42.746;23.606;2023-08-06T09:36:51;92327.19;;;38.69;35.60
36378;BME280;22402;42.746;23.606;2023-08-06T09:39:26;92334.34;;;38.74;34.76
36378;BME280;22402;42.746;23.606;2023-08-06T09:41:56;92325.56;;;38.81;35.73
36378;BME280;22402;42.746;23.606;2023-08-06T09:44:21;92326.44;;;38.97;34.54
36378;BME280;22402;42.746;23.606;2023-08-06T09:46:50;92318.63;;;39.11;33.99
36378;BME280;22402;42.746;23.606;2023-08-06T09:49:18;92320.03;;;39.33;33.48
36378;BME280;22402;42.746;23.606;2023-08-06T09:51:44;92319.78;;;39.54;33.57
36378;BME280;22402;42.746;23.606;2023-08-06T09:54:12;92315.19;;;39.74;32.96
36378;BME280;22402;42.746;23.606;2023-08-06T09:56:40;92317.22;;;39.93;32.99
36378;BME280;22402;42.746;23.606;2023-08-06T09:59:06;92323.78;;;40.08;32.33
36378;BME280;22402;42.746;23.606;2023-08-06T10:01:33;92321.13;;;40.27;32.27
36378;BME280;22402;42.746;23.606;2023-08-06T10:04:00;92322.72;;;40.48;31.82
36378;BME280;22402;42.746;23.606;2023-08-06T10:06:26;92326.56;;;40.63;31.06
36378;BME280;22402;42.746;23.606;2023-08-06T10:08:53;92334.50;;;40.68;30.89
36378;BME280;22402;42.746;23.606;2023-08-06T10:11:24;92337.06;;;40.80;30.80
36378;BME280;22402;42.746;23.606;2023-08-06T10:13:54;92339.44;;;41.01;30.85
36378;BME280;22402;42.746;23.606;2023-08-06T10:16:21;92338.22;;;41.18;30.16
36378;BME280;22402;42.746;23.606;2023-08-06T10:18:47;92340.75;;;41.50;29.85
36378;BME280;22402;42.746;23.606;2023-08-06T10:21:14;92333.47;;;41.80;29.35
36378;BME280;22402;42.746;23.606;2023-08-06T10:23:41;92334.69;;;42.06;29.17
36378;BME280;22402;42.746;23.606;2023-08-06T10:26:07;92337.44;;;42.32;28.67
36378;BME280;22402;42.746;23.606;2023-08-06T10:28:37;92331.09;;;42.55;28.37
36378;BME280;22402;42.746;23.606;2023-08-06T10:31:04;92338.41;;;42.74;27.95
36378;BME280;22402;42.746;23.606;2023-08-06T10:33:42;92327.34;;;42.97;27.64
36378;BME280;22402;42.746;23.606;2023-08-06T10:36:11;92333.19;;;43.26;26.87
36378;BME280;22402;42.746;23.606;2023-08-06T10:38:50;92328.16;;;43.76;26.07
36378;BME280;22402;42.746;23.606;2023-08-06T10:41:27;92321.47;;;44.18;25.47
36378;BME280;22402;42.746;23.606;2023-08-06T10:44:05;92324.75;;;44.34;25.07
36378;BME280;22402;42.746;23.606;2023-08-06T10:46:31;92331.09;;;44.45;24.92
36378;BME280;22402;42.746;23.606;2023-08-06T10:48:57;92341.75;;;44.57;24.86
36378;BME280;22402;42.746;23.606;2023-08-06T10:51:22;92338.34;;;43.72;26.19
36378;BME280;22402;42.746;23.606;2023-08-06T10:53:49;92340.16;;;42.06;26.64
36378;BME280;22402;42.746;23.606;2023-08-06T10:56:20;92339.69;;;40.22;28.66
36378;BME280;22402;42.746;23.606;2023-08-06T10:58:48;92333.03;;;39.40;30.33
36378;BME280;22402;42.746;23.606;2023-08-06T11:01:13;92337.81;;;38.59;30.51
36378;BME280;22402;42.746;23.606;2023-08-06T11:03:41;92344.16;;;37.40;32.16
36378;BME280;22402;42.746;23.606;2023-08-06T11:06:07;92342.41;;;36.06;33.65
36378;BME280;22402;42.746;23.606;2023-08-06T11:08:35;92346.97;;;34.82;35.35
36378;BME280;22402;42.746;23.606;2023-08-06T11:11:12;92349.22;;;33.70;37.38
36378;BME280;22402;42.746;23.606;2023-08-06T11:13:45;92355.63;;;32.67;39.47
36378;BME280;22402;42.746;23.606;2023-08-06T11:16:23;92349.97;;;31.68;41.90
36378;BME280;22402;42.746;23.606;2023-08-06T11:18:52;92350.16;;;30.84;43.64
36378;BME280;22402;42.746;23.606;2023-08-06T11:21:22;92364.03;;;30.20;45.44
36378;BME280;22402;42.746;23.606;2023-08-06T11:23:51;92341.03;;;29.71;46.36
36378;BME280;22402;42.746;23.606;2023-08-06T11:26:20;92351.16;;;29.32;47.57
36378;BME280;22402;42.746;23.606;2023-08-06T11:28:46;92351.22;;;28.97;49.00
36378;BME280;22402;42.746;23.606;2023-08-06T11:31:21;92353.28;;;28.76;50.57
36378;BME280;22402;42.746;23.606;2023-08-06T11:33:48;92357.94;;;28.66;51.23
36378;BME280;22402;42.746;23.606;2023-08-06T11:36:13;92360.91;;;28.64;51.70
36378;BME280;22402;42.746;23.606;2023-08-06T11:38:39;92353.59;;;28.70;51.57
36378;BME280;22402;42.746;23.606;2023-08-06T11:41:07;92358.09;;;28.79;51.71
36378;BME280;22402;42.746;23.606;2023-08-06T11:43:34;92364.19;;;28.85;51.11
36378;BME280;22402;42.746;23.606;2023-08-06T11:46:00;92363.34;;;28.90;50.54
36378;BME280;22402;42.746;23.606;2023-08-06T11:48:25;92359.53;;;28.96;49.38
36378;BME280;22402;42.746;23.606;2023-08-06T11:50:54;92362.03;;;29.88;48.00
36378;BME280;22402;42.746;23.606;2023-08-06T11:53:19;92356.91;;;30.81;45.21
36378;BME280;22402;42.746;23.606;2023-08-06T11:55:45;92361.19;;;31.29;44.22
36378;BME280;22402;42.746;23.606;2023-08-06T11:58:11;92352.88;;;31.44;43.10
36378;BME280;22402;42.746;23.606;2023-08-06T12:00:40;92360.03;;;32.63;39.94
36378;BME280;22402;42.746;23.606;2023-08-06T12:03:05;92344.75;;;33.74;38.27
36378;BME280;22402;42.746;23.606;2023-08-06T12:05:31;92351.63;;;33.80;37.43
36378;BME280;22402;42.746;23.606;2023-08-06T12:08:02;92353.47;;;33.31;37.41
36378;BME280;22402;42.746;23.606;2023-08-06T12:10:29;92347.72;;;33.24;38.05
36378;BME280;22402;42.746;23.606;2023-08-06T12:12:55;92357.16;;;34.67;36.52
36378;BME280;22402;42.746;23.606;2023-08-06T12:15:23;92357.69;;;36.11;33.81
36378;BME280;22402;42.746;23.606;2023-08-06T12:17:49;92365.84;;;36.94;32.33
36378;BME280;22402;42.746;23.606;2023-08-06T12:20:14;92362.28;;;37.03;31.61
36378;BME280;22402;42.746;23.606;2023-08-06T12:22:40;92356.63;;;36.75;31.52
36378;BME280;22402;42.746;23.606;2023-08-06T12:25:08;92357.06;;;36.98;30.38
36378;BME280;22402;42.746;23.606;2023-08-06T12:27:38;92355.81;;;36.32;30.99
36378;BME280;22402;42.746;23.606;2023-08-06T12:30:05;92349.81;;;35.50;32.16
36378;BME280;22402;42.746;23.606;2023-08-06T12:32:31;92343.06;;;36.03;32.02
36378;BME280;22402;42.746;23.606;2023-08-06T12:34:56;92350.34;;;37.16;31.03
36378;BME280;22402;42.746;23.606;2023-08-06T12:37:23;92342.44;;;37.93;28.83
36378;BME280;22402;42.746;23.606;2023-08-06T12:39:49;92338.88;;;38.42;28.48
36378;BME280;22402;42.746;23.606;2023-08-06T12:42:14;92338.69;;;39.19;27.56
36378;BME280;22402;42.746;23.606;2023-08-06T12:44:40;92341.09;;;39.80;26.22